Time;durP1;ratioP1;P1;durP2;ratioP2;P2;SDS_P1;SDS_P2;PMS_P1;PMS_P2;Temp;Humidity;BMP_temperature;BMP_pressure;BME280_temperature;BME280_humidity;BME280_pressure;Samples;Min_cycle;Max_cycle;Signal;HPM_P1;HPM_P2
2021/12/06 00:01:54;;;;;;;2.03;1.40;;;1.00;99.90;0.80;95630.00;;;;5052935;28;22041;-78
2021/12/06 00:04:45;;;;;;;3.40;0.90;;;1.00;99.90;0.80;95621.00;;;;5072054;28;20454;-77
2021/12/06 00:07:33;;;;;;;2.93;1.07;;;1.00;99.90;0.80;95632.00;;;;5047566;28;20791;-76
2021/12/06 00:10:23;;;;;;;0.90;0.90;;;1.00;99.90;0.80;95637.00;;;;5063802;28;20440;-77
2021/12/06 00:13:12;;;;;;;2.27;1.13;;;1.00;99.90;0.80;95645.00;;;;5053253;28;20464;-77
2021/12/06 00:16:06;;;;;;;1.33;1.17;;;1.00;99.90;0.80;95627.00;;;;5052174;28;20428;-78
2021/12/06 00:18:55;;;;;;;1.37;0.90;;;1.00;99.90;0.80;95635.00;;;;5038185;28;20432;-78
2021/12/06 00:21:45;;;;;;;1.23;1.20;;;1.00;99.90;0.80;95636.00;;;;5049040;28;20456;-77
2021/12/06 00:24:34;;;;;;;1.07;0.97;;;1.00;99.90;0.80;95634.00;;;;5049806;28;22223;-78
2021/12/06 00:27:24;;;;;;;1.27;1.07;;;1.00;99.90;0.70;95635.00;;;;5054283;28;20454;-78
2021/12/06 00:30:16;;;;;;;1.30;1.20;;;1.00;99.90;0.60;95637.00;;;;5058400;28;20416;-78
2021/12/06 00:33:05;;;;;;;1.00;0.90;;;1.00;99.90;0.60;95639.00;;;;5065847;28;20885;-78
2021/12/06 00:35:56;;;;;;;1.43;1.30;;;1.00;99.90;0.60;95638.00;;;;5043110;28;20428;-77
2021/12/06 00:38:46;;;;;;;1.87;1.30;;;0.90;99.90;0.50;95640.00;;;;5062310;28;20438;-77
2021/12/06 00:41:35;;;;;;;1.20;1.10;;;0.90;99.90;0.50;95640.00;;;;5047423;28;20452;-77
2021/12/06 00:44:25;;;;;;;1.53;1.10;;;0.90;99.90;0.40;95636.00;;;;5047958;28;20437;-77
2021/12/06 00:47:14;;;;;;;1.53;1.43;;;0.80;99.90;0.50;95638.00;;;;5051595;28;20440;-77
2021/12/06 00:50:04;;;;;;;1.20;1.10;;;0.80;99.90;0.60;95639.00;;;;5055882;28;20460;-78
2021/12/06 00:52:53;;;;;;;1.30;0.87;;;0.80;99.90;0.60;95640.00;;;;5067869;28;20461;-77
2021/12/06 00:55:44;;;;;;;1.30;1.20;;;0.80;99.90;0.70;95641.00;;;;5066935;28;20428;-78
2021/12/06 00:58:33;;;;;;;3.70;1.27;;;0.80;99.90;0.70;95640.00;;;;5036208;28;20442;-78
2021/12/06 01:01:22;;;;;;;1.13;1.13;;;0.90;99.90;0.50;95642.00;;;;5040895;28;20459;-78
2021/12/06 01:04:11;;;;;;;1.60;1.03;;;0.80;99.90;0.30;95640.00;;;;5062440;28;20466;-78
2021/12/06 01:07:00;;;;;;;0.90;0.90;;;0.80;99.90;0.30;95641.00;;;;5038114;28;20428;-78
2021/12/06 01:09:49;;;;;;;1.37;1.20;;;0.80;99.90;0.30;95651.00;;;;5040526;28;20440;-77
2021/12/06 01:12:39;;;;;;;0.93;0.93;;;0.80;99.90;0.40;95658.00;;;;5040666;28;21069;-77
2021/12/06 01:15:29;;;;;;;2.33;1.33;;;0.80;99.90;0.50;95657.00;;;;5038769;28;20475;-77
2021/12/06 01:18:20;;;;;;;1.43;0.90;;;0.70;99.90;0.50;95664.00;;;;5036390;28;20432;-77
2021/12/06 01:21:16;;;;;;;1.03;0.90;;;0.70;99.90;0.50;95664.00;;;;5044105;28;20831;-77
2021/12/06 01:24:07;;;;;;;0.90;0.90;;;0.70;99.90;0.50;95653.00;;;;5044859;28;20454;-77
2021/12/06 01:27:13;;;;;;;1.03;0.83;;;0.70;99.90;0.50;95664.00;;;;5048327;28;20442;-78
2021/12/06 01:30:24;;;;;;;1.00;1.00;;;0.70;99.90;0.40;95651.00;;;;5047731;28;20447;-77
2021/12/06 01:39:20;;;;;;;1.17;1.07;;;0.70;99.90;0.50;95659.00;;;;5037176;28;20436;-77
2021/12/06 01:42:10;;;;;;;1.87;1.23;;;1.30;99.90;0.40;95657.00;;;;5037952;28;20458;-78
2021/12/06 01:45:00;;;;;;;1.23;1.00;;;0.70;99.90;0.50;95653.00;;;;5032663;28;20932;-77
2021/12/06 01:47:50;;;;;;;1.30;1.20;;;0.70;99.90;0.50;95655.00;;;;5036797;28;20431;-77
2021/12/06 01:50:40;;;;;;;2.17;1.27;;;-0.10;99.90;0.50;95659.00;;;;5045706;28;20431;-77
2021/12/06 01:53:29;;;;;;;1.00;1.00;;;0.70;99.90;0.50;95666.00;;;;5038175;28;20432;-77
2021/12/06 01:56:18;;;;;;;3.63;1.37;;;0.70;99.90;0.50;95655.00;;;;5042860;28;20431;-77
2021/12/06 01:59:08;;;;;;;1.07;1.07;;;0.80;99.90;0.50;95655.00;;;;5033573;28;20425;-77
2021/12/06 02:01:58;;;;;;;1.50;1.40;;;0.70;99.90;0.50;95658.00;;;;5044582;28;20446;-78
2021/12/06 02:04:48;;;;;;;0.80;0.80;;;0.70;99.90;0.30;95652.00;;;;5055937;28;20440;-78
2021/12/06 02:07:37;;;;;;;1.27;1.10;;;0.70;99.90;0.30;95648.00;;;;5035502;28;20424;-77
2021/12/06 02:10:27;;;;;;;1.00;1.00;;;0.70;99.90;0.30;95640.00;;;;5046458;28;20446;-78
2021/12/06 02:13:17;;;;;;;0.90;0.90;;;0.70;99.90;0.20;95644.00;;;;5049519;28;20443;-76
2021/12/06 02:16:07;;;;;;;2.10;1.37;;;0.70;99.90;0.10;95637.00;;;;5048481;28;21072;-78
2021/12/06 02:19:02;;;;;;;0.63;0.63;;;0.60;99.90;0.10;95638.00;;;;5041891;28;20972;-78
2021/12/06 02:21:52;;;;;;;1.33;1.10;;;0.60;99.90;0.20;95626.00;;;;5054089;28;20521;-78
2021/12/06 02:24:41;;;;;;;1.40;1.30;;;0.60;99.90;0.20;95627.00;;;;5051670;28;20459;-78
2021/12/06 02:27:31;;;;;;;2.67;1.17;;;0.60;99.90;0.20;95638.00;;;;5049354;28;20666;-77
2021/12/06 02:30:22;;;;;;;2.17;0.97;;;0.60;99.90;0.20;95626.00;;;;5046809;28;20447;-77
2021/12/06 02:33:11;;;;;;;3.07;1.53;;;0.60;99.90;0.20;95629.00;;;;5065259;28;20429;-78
2021/12/06 02:36:00;;;;;;;1.27;1.20;;;0.60;99.90;0.10;95629.00;;;;5050900;28;20464;-77
2021/12/06 02:38:51;;;;;;;1.07;0.97;;;0.60;99.90;0.00;95626.00;;;;5044987;28;20440;-77
2021/12/06 02:41:40;;;;;;;2.17;1.33;;;0.60;99.90;0.00;95616.00;;;;5041704;28;20969;-78
2021/12/06 02:44:29;;;;;;;1.30;1.20;;;0.50;99.90;0.00;95610.00;;;;5056637;28;20458;-78
2021/12/06 02:47:19;;;;;;;1.43;1.17;;;0.50;99.90;-0.10;95613.00;;;;5064359;28;20434;-78
2021/12/06 02:50:11;;;;;;;1.37;1.23;;;0.50;99.90;-0.10;95610.00;;;;5062447;28;20687;-78
2021/12/06 02:53:00;;;;;;;1.07;1.00;;;0.40;99.90;-0.30;95597.00;;;;5057934;28;20493;-78
2021/12/06 02:55:53;;;;;;;0.70;0.70;;;0.40;99.90;-0.30;95599.00;;;;5056685;28;20478;-77
2021/12/06 02:58:56;;;;;;;1.23;1.17;;;0.30;99.90;-0.40;95598.00;;;;5042066;28;20435;-78
2021/12/06 03:01:48;;;;;;;2.87;1.57;;;0.30;99.90;-0.30;95599.00;;;;5051023;28;20456;-78
2021/12/06 03:04:38;;;;;;;1.13;1.03;;;0.30;99.90;-0.30;95598.00;;;;5053902;28;20509;-77
2021/12/06 03:07:28;;;;;;;1.50;1.07;;;0.20;99.90;-0.40;95609.00;;;;5058369;28;20757;-78
2021/12/06 03:10:18;;;;;;;3.87;1.20;;;0.20;99.90;-0.50;95603.00;;;;5056083;28;20420;-78
2021/12/06 03:13:08;;;;;;;1.30;1.20;;;0.10;99.90;-0.50;95602.00;;;;5044410;28;20442;-78
2021/12/06 03:15:57;;;;;;;3.37;1.73;;;0.10;99.90;-0.50;95597.00;;;;5048430;28;20472;-78
2021/12/06 03:18:52;;;;;;;1.30;1.20;;;0.00;99.90;-0.50;95592.00;;;;5044776;28;20428;-77
2021/12/06 03:21:41;;;;;;;13.87;1.77;;;0.00;99.90;-0.60;95600.00;;;;5044853;28;20456;-77
2021/12/06 03:24:30;;;;;;;5.13;1.57;;;0.00;99.90;-0.60;95612.00;;;;5048624;28;20431;-77
2021/12/06 03:27:20;;;;;;;1.30;1.20;;;-0.10;99.90;-0.70;95605.00;;;;5049966;28;20458;-77
2021/12/06 03:30:14;;;;;;;7.30;1.57;;;-0.10;99.90;-0.80;95619.00;;;;5055066;28;20475;-77
2021/12/06 03:33:03;;;;;;;12.37;2.13;;;-0.20;99.90;-0.80;95625.00;;;;5051302;28;20438;-77
2021/12/06 03:35:52;;;;;;;2.53;1.70;;;-0.20;99.90;-0.80;95632.00;;;;5040595;28;20578;-76
2021/12/06 03:38:43;;;;;;;5.53;1.40;;;-0.20;99.90;-0.70;95639.00;;;;5040347;28;20935;-78
2021/12/06 03:41:32;;;;;;;1.77;1.40;;;-0.30;99.90;-0.70;95638.00;;;;5041450;28;20459;-77
2021/12/06 03:44:21;;;;;;;1.63;1.50;;;-0.20;99.90;-0.70;95644.00;;;;5054604;28;20431;-77
2021/12/06 03:47:17;;;;;;;1.50;1.20;;;-0.20;99.90;-0.60;95652.00;;;;5050393;28;20450;-79
2021/12/06 03:50:10;;;;;;;1.07;0.93;;;-0.20;99.90;-0.80;95647.00;;;;5057036;28;20434;-77
2021/12/06 03:52:59;;;;;;;2.57;1.83;;;-0.20;99.90;-0.70;95651.00;;;;5054781;28;20438;-78
2021/12/06 03:55:48;;;;;;;1.13;1.03;;;-0.20;99.90;-0.60;95642.00;;;;5060299;28;20553;-78
2021/12/06 03:58:37;;;;;;;2.07;1.70;;;-0.10;99.90;-0.60;95655.00;;;;5044985;28;20575;-78
2021/12/06 04:01:26;;;;;;;1.63;1.53;;;-0.10;99.90;-0.60;95655.00;;;;5048772;28;20470;-76
2021/12/06 04:04:17;;;;;;;1.73;1.30;;;-0.10;99.90;-0.60;95666.00;;;;5042707;28;21006;-77
2021/12/06 04:07:07;;;;;;;1.50;1.40;;;0.70;99.90;-0.50;95670.00;;;;5054055;28;20439;-78
2021/12/06 04:09:56;;;;;;;1.87;1.60;;;-0.10;99.90;-0.50;95670.00;;;;5055563;28;20439;-78
2021/12/06 04:12:45;;;;;;;1.80;1.27;;;-0.10;99.90;-0.50;95675.00;;;;5047852;28;20451;-78
2021/12/06 04:15:35;;;;;;;1.60;1.50;;;0.00;99.90;-0.40;95670.00;;;;5048535;28;20482;-78
2021/12/06 04:18:25;;;;;;;1.07;1.07;;;0.00;99.90;-0.50;95677.00;;;;5041549;28;20792;-78
2021/12/06 04:21:15;;;;;;;1.10;1.00;;;0.00;99.90;-0.40;95681.00;;;;5049891;28;20458;-78
2021/12/06 04:24:05;;;;;;;1.07;0.97;;;0.00;99.90;-0.30;95676.00;;;;5058435;28;20435;-78
2021/12/06 04:26:54;;;;;;;1.17;1.17;;;0.00;99.90;-0.30;95678.00;;;;5058620;28;20445;-77
2021/12/06 04:29:45;;;;;;;1.27;1.17;;;0.10;99.90;-0.30;95679.00;;;;5057266;28;20785;-77
2021/12/06 04:32:34;;;;;;;1.37;1.27;;;0.10;99.90;-0.30;95691.00;;;;5055202;28;20454;-78
2021/12/06 04:35:24;;;;;;;1.13;1.03;;;0.10;99.90;-0.30;95689.00;;;;5043280;28;20471;-77
2021/12/06 04:38:15;;;;;;;1.27;1.27;;;0.20;99.90;-0.30;95691.00;;;;5045166;28;20440;-78
2021/12/06 04:41:04;;;;;;;1.83;1.33;;;0.10;99.90;-0.40;95693.00;;;;5049500;28;20444;-78
2021/12/06 04:43:53;;;;;;;0.97;0.90;;;0.10;99.90;-0.40;95695.00;;;;5056673;28;20445;-78
2021/12/06 04:46:43;;;;;;;1.77;1.30;;;0.10;99.90;-0.40;95708.00;;;;5055954;28;20420;-77
2021/12/06 04:49:32;;;;;;;1.20;1.10;;;0.00;99.90;-0.30;95708.00;;;;5058988;28;20430;-78
2021/12/06 04:52:21;;;;;;;3.03;1.23;;;0.00;99.90;-0.30;95705.00;;;;5054096;28;20455;-77
2021/12/06 04:55:23;;;;;;;0.97;0.83;;;0.10;99.90;-0.20;95717.00;;;;5048952;28;20453;-78
2021/12/06 04:58:17;;;;;;;0.93;0.90;;;0.10;99.90;-0.30;95718.00;;;;5042796;28;20446;-78
2021/12/06 05:01:11;;;;;;;1.70;1.20;;;0.10;99.90;-0.30;95715.00;;;;5040728;28;20451;-78
2021/12/06 05:04:06;;;;;;;3.47;1.30;;;0.10;99.90;-0.20;95717.00;;;;5055041;28;20439;-77
2021/12/06 05:07:01;;;;;;;3.17;1.60;;;0.20;99.90;-0.30;95727.00;;;;5068505;28;20438;-77
2021/12/06 05:09:50;;;;;;;1.03;0.87;;;0.20;99.90;-0.20;95723.00;;;;5052482;28;20955;-78
2021/12/06 05:12:41;;;;;;;0.60;0.60;;;0.20;99.90;-0.20;95725.00;;;;5026929;28;20448;-79
2021/12/06 05:15:30;;;;;;;1.23;0.83;;;0.20;99.90;-0.10;95735.00;;;;5026173;28;20480;-72
2021/12/06 05:18:19;;;;;;;1.00;0.80;;;0.20;99.90;-0.10;95740.00;;;;5042875;28;20856;-74
2021/12/06 05:21:09;;;;;;;0.80;0.77;;;0.20;99.90;-0.10;95730.00;;;;5032918;28;20443;-75
2021/12/06 05:23:58;;;;;;;1.03;0.97;;;0.20;99.90;-0.10;95729.00;;;;5032803;28;20435;-75
2021/12/06 05:26:48;;;;;;;1.73;1.00;;;0.20;99.90;-0.20;95732.00;;;;5039467;28;20446;-74
2021/12/06 05:29:44;;;;;;;1.30;1.20;;;0.20;99.90;-0.20;95737.00;;;;5040142;28;20440;-74
2021/12/06 05:32:35;;;;;;;1.03;1.00;;;0.20;99.90;-0.20;95743.00;;;;5038077;28;20443;-74
2021/12/06 05:35:24;;;;;;;0.93;0.87;;;0.20;99.90;-0.20;95748.00;;;;5044002;28;20944;-73
2021/12/06 05:38:14;;;;;;;0.80;0.80;;;0.20;99.90;-0.20;95737.00;;;;5054850;28;20426;-75
2021/12/06 05:41:05;;;;;;;0.97;0.83;;;0.20;99.90;-0.30;95746.00;;;;5045962;28;20455;-76
2021/12/06 05:43:54;;;;;;;1.23;1.13;;;0.20;99.90;-0.30;95753.00;;;;5052703;28;20422;-74
2021/12/06 05:46:44;;;;;;;1.83;0.97;;;0.10;99.90;-0.30;95750.00;;;;5055706;28;20431;-79
2021/12/06 05:49:34;;;;;;;1.87;0.93;;;0.10;99.90;-0.30;95760.00;;;;5051996;28;20419;-79
2021/12/06 05:52:23;;;;;;;1.10;1.00;;;0.10;99.90;-0.30;95761.00;;;;5054181;28;20450;-78
2021/12/06 05:55:13;;;;;;;1.40;0.90;;;0.10;99.90;-0.40;95768.00;;;;5053634;28;20424;-78
2021/12/06 05:58:05;;;;;;;1.53;1.07;;;0.10;99.90;-0.40;95774.00;;;;5054237;28;20440;-78
2021/12/06 06:00:57;;;;;;;1.50;1.00;;;0.10;99.90;-0.40;95776.00;;;;5045980;28;20431;-74
2021/12/06 06:03:47;;;;;;;1.10;0.80;;;0.10;99.90;-0.40;95784.00;;;;5049794;28;20427;-74
2021/12/06 06:06:38;;;;;;;1.97;1.00;;;0.00;99.90;-0.40;95785.00;;;;5051416;28;20423;-74
2021/12/06 06:09:27;;;;;;;0.70;0.70;;;-0.10;99.90;-0.50;95790.00;;;;5047007;28;20431;-74
2021/12/06 06:12:16;;;;;;;0.93;0.90;;;0.00;99.90;-0.50;95791.00;;;;5043722;28;20440;-74
2021/12/06 06:15:07;;;;;;;0.50;0.50;;;-1.10;99.90;-0.60;95795.00;;;;5050085;28;20742;-74
2021/12/06 06:17:58;;;;;;;3.93;1.23;;;-0.10;99.90;-0.80;95801.00;;;;5037782;28;21011;-74
2021/12/06 06:20:51;;;;;;;3.23;1.27;;;-0.10;99.90;-0.80;95803.00;;;;5041454;28;20435;-74
2021/12/06 06:23:42;;;;;;;1.03;0.93;;;-0.20;99.90;-0.90;95812.00;;;;5059415;28;20438;-74
2021/12/06 06:26:31;;;;;;;1.30;1.20;;;-0.30;99.90;-0.90;95820.00;;;;5051626;28;20451;-74
2021/12/06 06:29:20;;;;;;;1.37;1.20;;;-0.30;99.90;-1.00;95834.00;;;;5035396;28;20428;-74
2021/12/06 06:32:09;;;;;;;2.53;0.90;;;-0.40;99.90;-1.00;95831.00;;;;5045637;28;20987;-74
2021/12/06 06:34:58;;;;;;;0.80;0.80;;;-0.40;99.90;-1.10;95835.00;;;;5045048;28;20430;-74
2021/12/06 06:37:49;;;;;;;0.87;0.80;;;-0.50;99.90;-1.20;95835.00;;;;5048190;28;20478;-77
2021/12/06 06:40:38;;;;;;;0.83;0.83;;;-0.50;99.90;-1.20;95833.00;;;;5054217;28;20428;-77
2021/12/06 06:43:27;;;;;;;0.67;0.67;;;-0.60;99.90;-1.30;95839.00;;;;5037057;28;20442;-74
2021/12/06 06:46:16;;;;;;;5.57;3.33;;;-0.60;99.90;-1.40;95843.00;;;;5048950;28;20418;-78
2021/12/06 06:49:05;;;;;;;2.43;1.97;;;-0.60;99.90;-1.40;95844.00;;;;5058448;28;20757;-79
2021/12/06 06:51:54;;;;;;;0.87;0.70;;;-0.60;99.90;-1.40;95847.00;;;;5048899;28;20455;-79
2021/12/06 06:54:44;;;;;;;1.53;1.07;;;-0.70;99.90;-1.50;95854.00;;;;5053989;28;20800;-75
2021/12/06 06:57:34;;;;;;;1.60;1.50;;;-0.70;99.90;-1.20;95862.00;;;;5047200;28;20466;-75
2021/12/06 07:00:28;;;;;;;0.97;0.97;;;-0.80;99.90;-1.50;95861.00;;;;5046367;28;20424;-76
2021/12/06 07:03:17;;;;;;;0.70;0.70;;;-0.70;99.90;-1.50;95854.00;;;;5036774;28;20420;-77
2021/12/06 07:06:06;;;;;;;1.10;1.00;;;-0.70;99.90;-1.40;95863.00;;;;5052689;28;20423;-77
2021/12/06 07:08:58;;;;;;;1.27;0.93;;;-0.80;99.90;-1.20;95861.00;;;;5057071;28;20423;-79
2021/12/06 07:11:49;;;;;;;0.90;0.90;;;-0.70;99.90;-1.40;95866.00;;;;5048602;28;20452;-78
2021/12/06 07:14:38;;;;;;;6.60;1.23;;;-0.70;99.90;-1.40;95872.00;;;;5055879;28;20423;-78
2021/12/06 07:17:27;;;;;;;1.57;1.10;;;-0.70;99.90;-1.30;95872.00;;;;5043040;28;20468;-76
2021/12/06 07:20:16;;;;;;;3.67;1.60;;;-0.70;99.90;-1.10;95871.00;;;;5042707;28;20434;-74
2021/12/06 07:23:06;;;;;;;2.30;1.37;;;-0.70;99.90;-1.20;95880.00;;;;5052412;28;20454;-75
2021/12/06 07:25:54;;;;;;;1.43;1.30;;;-0.60;99.90;-1.20;95882.00;;;;5056352;28;20419;-81
2021/12/06 07:28:48;;;;;;;1.80;1.60;;;-0.60;99.90;-1.10;95881.00;;;;5051089;28;20431;-76
2021/12/06 07:31:37;;;;;;;1.27;1.10;;;-0.60;99.90;-0.90;95889.00;;;;5053960;28;20443;-81
2021/12/06 07:34:26;;;;;;;2.03;1.70;;;-0.50;99.90;-1.00;95881.00;;;;5052362;28;20432;-79
2021/12/06 07:37:15;;;;;;;3.57;1.40;;;-0.50;99.90;-1.10;95884.00;;;;5051139;28;20463;-81
2021/12/06 07:40:08;;;;;;;2.60;1.97;;;0.40;99.90;-1.00;95886.00;;;;5051241;28;20435;-81
2021/12/06 07:42:58;;;;;;;2.13;1.93;;;-0.70;99.90;-1.10;95893.00;;;;5052556;28;20435;-81
2021/12/06 07:45:48;;;;;;;7.23;2.63;;;-0.50;99.90;-0.90;95900.00;;;;5046888;28;20436;-81
2021/12/06 07:48:39;;;;;;;2.37;2.20;;;-0.50;99.90;-0.70;95883.00;;;;5043838;28;20431;-79
2021/12/06 07:51:29;;;;;;;4.33;3.50;;;-0.40;99.90;-0.70;95890.00;;;;5052516;28;20463;-81
2021/12/06 07:54:18;;;;;;;9.27;4.87;;;-0.40;99.90;-0.80;95898.00;;;;5050740;28;20431;-78
2021/12/06 07:57:08;;;;;;;13.07;6.00;;;-0.40;99.90;-0.90;95890.00;;;;5051948;28;20479;-81
2021/12/06 07:59:57;;;;;;;7.10;4.40;;;-0.40;99.90;-0.90;95891.00;;;;5051283;28;20442;-80
2021/12/06 08:02:49;;;;;;;12.20;5.60;;;-0.40;99.90;-0.50;95897.00;;;;5041446;28;20454;-80
2021/12/06 08:05:41;;;;;;;9.13;7.03;;;-0.30;99.90;-0.60;95890.00;;;;5052471;28;20427;-83
2021/12/06 08:08:33;;;;;;;17.50;9.70;;;-0.10;99.90;-0.40;95894.00;;;;5048892;28;20432;-81
2021/12/06 08:11:22;;;;;;;10.33;6.73;;;-0.10;99.90;-0.30;95903.00;;;;5054483;28;20438;-78
2021/12/06 08:14:12;;;;;;;9.37;6.43;;;0.00;99.90;0.00;95906.00;;;;5033130;28;20447;-81
2021/12/06 08:17:00;;;;;;;6.93;3.87;;;0.20;99.90;-0.30;95901.00;;;;5050529;28;20459;-81
2021/12/06 08:19:51;;;;;;;4.87;3.07;;;0.30;99.90;-0.10;95913.00;;;;5052052;28;20423;-82
2021/12/06 08:22:40;;;;;;;3.30;2.97;;;0.30;99.90;-0.20;95900.00;;;;5041758;28;20451;-82
2021/12/06 08:25:29;;;;;;;2.73;2.10;;;0.40;99.90;-0.20;95896.00;;;;5045185;28;20432;-81
2021/12/06 08:28:20;;;;;;;1.93;1.77;;;0.40;99.90;0.00;95899.00;;;;5046191;28;20467;-82
2021/12/06 08:31:10;;;;;;;2.93;2.67;;;0.50;99.90;0.00;95918.00;;;;5045773;28;20443;-82
2021/12/06 08:33:59;;;;;;;2.40;2.20;;;0.50;99.90;0.00;95913.00;;;;5044066;28;20802;-82
2021/12/06 08:36:49;;;;;;;7.17;2.27;;;0.50;99.90;0.00;95906.00;;;;5055809;28;20434;-83
2021/12/06 08:39:39;;;;;;;6.30;3.20;;;0.50;99.90;0.20;95901.00;;;;5056279;28;20424;-82
2021/12/06 08:42:28;;;;;;;1.37;1.27;;;0.50;99.90;0.00;95903.00;;;;5045573;28;20451;-82
2021/12/06 08:45:17;;;;;;;1.30;1.20;;;0.50;99.90;-0.10;95908.00;;;;5044498;28;20442;-82
2021/12/06 08:48:06;;;;;;;3.90;2.07;;;0.60;99.90;0.10;95913.00;;;;5047071;28;20423;-83
2021/12/06 08:50:59;;;;;;;7.87;3.33;;;0.60;99.90;0.50;95913.00;;;;5048309;28;20454;-82
2021/12/06 08:53:51;;;;;;;4.57;2.53;;;0.70;99.90;1.00;95930.00;;;;5047592;28;20434;-80
2021/12/06 08:56:41;;;;;;;4.37;3.23;;;0.80;99.90;1.20;95926.00;;;;5048421;28;20436;-80
2021/12/06 08:59:30;;;;;;;17.00;9.00;;;1.00;99.90;1.30;95930.00;;;;5068482;28;20434;-82
2021/12/06 09:02:21;;;;;;;9.40;5.87;;;1.20;99.90;1.70;95936.00;;;;5056926;28;20444;-82
2021/12/06 09:05:36;;;;;;;10.93;5.20;;;1.40;99.90;1.80;95940.00;;;;5047344;28;20430;-79
2021/12/06 09:08:25;;;;;;;6.10;3.77;;;1.60;99.90;2.40;95947.00;;;;5044584;28;20430;-78
2021/12/06 09:11:15;;;;;;;6.13;3.57;;;1.90;99.90;2.20;95942.00;;;;5037333;28;20466;-80
2021/12/06 09:14:05;;;;;;;5.10;3.20;;;2.10;99.90;2.10;95942.00;;;;5051064;28;20439;-80
2021/12/06 09:16:54;;;;;;;5.53;3.57;;;2.20;99.90;2.50;95937.00;;;;5048017;28;20440;-81
2021/12/06 09:19:46;;;;;;;5.00;3.43;;;2.30;99.90;2.80;95944.00;;;;5044655;28;20423;-80
2021/12/06 09:22:35;;;;;;;3.47;2.67;;;2.50;99.90;2.30;95929.00;;;;5039740;28;20447;-83
2021/12/06 09:25:24;;;;;;;3.67;2.23;;;2.60;99.90;2.50;95940.00;;;;5051380;28;20674;-82
2021/12/06 09:28:19;;;;;;;2.43;1.97;;;2.60;99.90;2.90;95940.00;;;;5037016;28;20463;-77
2021/12/06 09:31:10;;;;;;;1.57;1.47;;;2.70;99.90;2.60;95946.00;;;;5032481;28;20974;-77
2021/12/06 09:33:59;;;;;;;1.67;1.53;;;2.80;99.90;3.40;95934.00;;;;5026990;28;20428;-76
2021/12/06 09:36:49;;;;;;;1.70;1.13;;;3.00;99.90;3.70;95951.00;;;;5026111;28;20424;-76
2021/12/06 09:39:38;;;;;;;1.00;1.00;;;3.20;99.90;4.20;95949.00;;;;5037352;28;20463;-76
2021/12/06 09:42:32;;;;;;;2.23;1.27;;;3.40;99.90;3.70;95955.00;;;;5039759;28;20447;-76
2021/12/06 09:45:27;;;;;;;1.33;0.90;;;3.60;99.90;4.30;95962.00;;;;5036970;28;20688;-75
2021/12/06 09:48:18;;;;;;;0.60;0.60;;;3.70;99.90;4.00;95947.00;;;;5035548;28;21238;-80
2021/12/06 09:51:12;;;;;;;0.90;0.80;;;3.90;99.90;4.00;95949.00;;;;5039795;28;20474;-79
2021/12/06 09:54:02;;;;;;;0.60;0.60;;;4.00;99.90;4.50;95958.00;;;;5051616;28;20431;-79
2021/12/06 09:56:53;;;;;;;1.83;0.77;;;4.10;99.90;4.80;95952.00;;;;5048891;28;20416;-79
2021/12/06 09:59:44;;;;;;;0.97;0.53;;;4.30;99.90;5.00;95944.00;;;;5040828;28;20661;-76
2021/12/06 10:02:34;;;;;;;1.07;0.40;;;4.50;99.90;5.20;95953.00;;;;5052785;28;20228;-76
2021/12/06 10:05:26;;;;;;;0.73;0.30;;;4.70;99.90;5.50;95947.00;;;;5047734;28;20301;-77
2021/12/06 10:08:15;;;;;;;0.67;0.40;;;4.90;99.90;5.60;95945.00;;;;5051146;28;20213;-76
2021/12/06 10:11:06;;;;;;;1.00;0.60;;;5.10;99.90;5.80;95951.00;;;;5058682;28;20220;-76
2021/12/06 10:13:57;;;;;;;2.37;0.53;;;5.30;99.90;6.10;95931.00;;;;5044507;28;20689;-77
2021/12/06 10:16:47;;;;;;;1.53;0.50;;;5.60;99.90;6.60;95944.00;;;;5043673;28;20211;-75
2021/12/06 10:19:37;;;;;;;0.37;0.37;;;6.40;99.90;5.70;95931.00;;;;5046568;28;20534;-77
2021/12/06 10:22:34;;;;;;;0.77;0.40;;;7.10;99.30;7.30;95952.00;;;;5044361;28;20220;-77
2021/12/06 10:25:34;;;;;;;0.30;0.30;;;7.80;99.90;6.90;95938.00;;;;5045817;28;20205;-77
2021/12/06 10:28:30;;;;;;;0.67;0.53;;;8.40;93.00;7.60;95948.00;;;;5023225;28;20306;-76
2021/12/06 10:31:19;;;;;;;0.30;0.30;;;8.80;90.10;8.30;95945.00;;;;5028486;28;20229;-77
2021/12/06 10:34:09;;;;;;;0.40;0.30;;;9.20;90.50;8.80;95945.00;;;;5053311;28;20196;-77
2021/12/06 10:36:59;;;;;;;0.50;0.50;;;9.50;87.90;9.20;95953.00;;;;5044244;28;20567;-76
2021/12/06 10:39:48;;;;;;;0.40;0.37;;;9.80;88.20;9.10;95931.00;;;;5030603;28;20232;-77
2021/12/06 10:42:41;;;;;;;0.70;0.40;;;10.00;83.80;9.10;95934.00;;;;5037110;28;20232;-76
2021/12/06 10:45:32;;;;;;;2.23;0.40;;;10.10;82.20;8.90;95924.00;;;;5045350;28;20190;-77
2021/12/06 10:48:26;;;;;;;1.07;0.40;;;10.00;78.30;9.10;95916.00;;;;5032104;28;20197;-76
2021/12/06 10:51:20;;;;;;;0.40;0.33;;;10.10;75.90;9.10;95918.00;;;;5034961;28;20723;-77
2021/12/06 10:54:19;;;;;;;0.53;0.40;;;10.10;74.30;9.00;95923.00;;;;5046344;28;20599;-77
2021/12/06 10:57:09;;;;;;;0.77;0.50;;;10.00;70.80;7.70;95901.00;;;;5046205;28;20207;-75
2021/12/06 10:59:58;;;;;;;1.00;0.70;;;9.50;68.90;8.50;95898.00;;;;5037812;28;20220;-77
2021/12/06 11:02:51;;;;;;;0.70;0.50;;;9.50;69.20;9.10;95916.00;;;;5052940;28;20229;-76
2021/12/06 11:05:43;;;;;;;0.73;0.50;;;9.60;71.40;8.20;95908.00;;;;5041482;28;20216;-77
2021/12/06 11:08:36;;;;;;;0.93;0.50;;;9.50;66.20;8.80;95916.00;;;;5040539;28;20216;-76
2021/12/06 11:11:30;;;;;;;0.60;0.40;;;9.40;69.20;8.70;95909.00;;;;5047896;28;20318;-78
2021/12/06 11:14:23;;;;;;;0.60;0.53;;;9.50;66.80;8.90;95916.00;;;;5041117;28;20205;-77
2021/12/06 11:17:16;;;;;;;0.50;0.50;;;9.90;68.70;9.40;95920.00;;;;5050964;28;20898;-77
2021/12/06 11:20:20;;;;;;;0.63;0.60;;;10.00;66.80;9.20;95912.00;;;;5047986;28;20224;-78
2021/12/06 11:23:09;;;;;;;0.50;0.50;;;10.20;64.80;9.50;95911.00;;;;5053193;28;20208;-77
2021/12/06 11:26:01;;;;;;;1.50;0.60;;;10.30;63.10;9.30;95900.00;;;;5059342;28;20208;-77
2021/12/06 11:28:52;;;;;;;0.50;0.40;;;10.20;63.60;9.90;95919.00;;;;5033490;28;20216;-76
2021/12/06 11:31:44;;;;;;;1.67;0.60;;;10.50;63.50;10.90;95930.00;;;;5054073;28;20303;-78
2021/12/06 11:34:37;;;;;;;1.33;0.80;;;10.90;64.50;9.30;95916.00;;;;5034658;28;20213;-80
2021/12/06 11:37:31;;;;;;;0.30;0.30;;;11.00;60.60;10.50;95928.00;;;;5032341;28;20197;-78
2021/12/06 11:40:25;;;;;;;0.90;0.37;;;11.20;60.70;10.50;95920.00;;;;5042115;28;20220;-78
2021/12/06 11:43:17;;;;;;;1.43;0.67;;;11.30;59.30;10.40;95920.00;;;;5057074;28;20219;-79
2021/12/06 11:46:10;;;;;;;2.90;0.50;;;11.30;59.80;10.30;95919.00;;;;5049810;28;20201;-79
2021/12/06 11:48:59;;;;;;;0.93;0.63;;;11.40;57.90;9.50;95917.00;;;;5049028;28;20307;-79
2021/12/06 11:51:51;;;;;;;1.37;0.70;;;11.00;58.10;8.00;95902.00;;;;5040941;28;20232;-78
2021/12/06 11:54:46;;;;;;;0.40;0.40;;;10.60;57.90;9.20;95915.00;;;;5042263;28;20675;-77
2021/12/06 11:57:40;;;;;;;1.60;0.40;;;10.40;58.90;9.40;95925.00;;;;5045222;28;20567;-75
2021/12/06 12:00:31;;;;;;;0.63;0.50;;;10.40;58.40;10.20;95928.00;;;;5045113;28;20511;-77
2021/12/06 12:03:32;;;;;;;2.33;0.67;;;10.60;58.60;10.70;95938.00;;;;5040172;28;20210;-80
2021/12/06 12:06:28;;;;;;;1.70;0.63;;;11.10;58.40;12.30;95941.00;;;;5049256;28;20193;-79
2021/12/06 12:09:24;;;;;;;0.80;0.50;;;11.70;59.70;12.70;95940.00;;;;5061836;28;20368;-78
2021/12/06 12:12:21;;;;;;;1.13;0.53;;;12.50;57.30;12.10;95938.00;;;;5042025;28;20217;-80
2021/12/06 12:15:10;;;;;;;1.13;0.63;;;12.60;56.40;10.80;95937.00;;;;5062626;28;20196;-79
2021/12/06 12:17:59;;;;;;;1.07;0.40;;;12.80;53.70;10.20;95930.00;;;;5044830;28;20193;-82
2021/12/06 12:21:06;;;;;;;0.40;0.40;;;12.30;54.20;12.20;95945.00;;;;5046715;28;20243;-77
2021/12/06 12:23:55;;;;;;;0.50;0.40;;;12.50;56.00;11.50;95926.00;;;;5040092;28;20205;-78
2021/12/06 12:26:55;;;;;;;0.80;0.33;;;12.70;53.30;11.70;95953.00;;;;5051096;28;20219;-80
2021/12/06 12:29:45;;;;;;;0.90;0.40;;;12.60;54.50;11.70;95954.00;;;;5047791;28;20203;-82
2021/12/06 12:32:34;;;;;;;0.97;0.40;;;12.70;53.70;10.20;95946.00;;;;5051938;28;20239;-81
2021/12/06 12:35:23;;;;;;;0.30;0.30;;;12.20;52.90;11.80;95963.00;;;;5041022;28;20215;-78
2021/12/06 12:38:20;;;;;;;2.93;0.43;;;12.30;54.10;12.20;95961.00;;;;5032582;28;20685;-79
2021/12/06 12:41:12;;;;;;;0.93;0.80;;;12.30;54.30;12.30;95957.00;;;;5031466;28;20798;-79
2021/12/06 12:44:07;;;;;;;3.17;0.73;;;12.60;53.70;11.00;95955.00;;;;5038324;28;20593;-79
2021/12/06 12:46:56;;;;;;;0.50;0.50;;;12.40;52.90;11.30;95959.00;;;;5043625;28;20211;-80
2021/12/06 12:49:49;;;;;;;0.70;0.40;;;12.50;53.20;11.60;95955.00;;;;5048495;28;20211;-77
2021/12/06 12:52:42;;;;;;;0.90;0.60;;;12.70;52.70;12.10;95972.00;;;;5042292;28;20229;-79
2021/12/06 12:55:36;;;;;;;0.60;0.60;;;12.70;52.60;11.70;95976.00;;;;5036846;28;20201;-78